sensor_id;sensor_type;location;lat;lon;timestamp;P1;durP1;ratioP1;P2;durP2;ratioP2
7306;SDS011;3694;48.732;9.248;2022-12-07T00:01:47;11.20;;;9.27;;
7306;SDS011;3694;48.732;9.248;2022-12-07T00:04:08;10.40;;;8.80;;
7306;SDS011;3694;48.732;9.248;2022-12-07T00:06:38;10.37;;;9.17;;
7306;SDS011;3694;48.732;9.248;2022-12-07T00:09:06;10.33;;;8.67;;
7306;SDS011;3694;48.732;9.248;2022-12-07T00:11:34;11.13;;;9.73;;
7306;SDS011;3694;48.732;9.248;2022-12-07T00:14:01;10.57;;;9.03;;
7306;SDS011;3694;48.732;9.248;2022-12-07T00:16:30;10.37;;;9.23;;
7306;SDS011;3694;48.732;9.248;2022-12-07T00:18:56;11.07;;;9.43;;
7306;SDS011;3694;48.732;9.248;2022-12-07T00:21:27;12.17;;;9.67;;
7306;SDS011;3694;48.732;9.248;2022-12-07T00:23:55;9.70;;;8.50;;
7306;SDS011;3694;48.732;9.248;2022-12-07T00:26:24;12.50;;;9.67;;
7306;SDS011;3694;48.732;9.248;2022-12-07T00:28:59;9.97;;;8.97;;
7306;SDS011;3694;48.732;9.248;2022-12-07T00:31:29;10.67;;;9.10;;
7306;SDS011;3694;48.732;9.248;2022-12-07T00:33:58;9.63;;;8.50;;
7306;SDS011;3694;48.732;9.248;2022-12-07T00:36:24;10.73;;;9.10;;
7306;SDS011;3694;48.732;9.248;2022-12-07T00:38:50;10.07;;;8.77;;
7306;SDS011;3694;48.732;9.248;2022-12-07T00:41:17;10.63;;;9.10;;
7306;SDS011;3694;48.732;9.248;2022-12-07T00:43:48;11.00;;;9.47;;
7306;SDS011;3694;48.732;9.248;2022-12-07T00:46:14;11.33;;;10.13;;
7306;SDS011;3694;48.732;9.248;2022-12-07T00:48:40;10.90;;;9.60;;
7306;SDS011;3694;48.732;9.248;2022-12-07T00:51:06;10.67;;;9.60;;
7306;SDS011;3694;48.732;9.248;2022-12-07T00:53:35;11.40;;;9.73;;
7306;SDS011;3694;48.732;9.248;2022-12-07T00:56:09;14.20;;;11.33;;
7306;SDS011;3694;48.732;9.248;2022-12-07T00:58:42;10.73;;;9.63;;
7306;SDS011;3694;48.732;9.248;2022-12-07T01:01:09;11.20;;;10.10;;
7306;SDS011;3694;48.732;9.248;2022-12-07T01:03:36;11.07;;;9.87;;
7306;SDS011;3694;48.732;9.248;2022-12-07T01:06:02;10.97;;;9.87;;
7306;SDS011;3694;48.732;9.248;2022-12-07T01:08:27;11.60;;;10.40;;
7306;SDS011;3694;48.732;9.248;2022-12-07T01:11:00;12.33;;;10.13;;
7306;SDS011;3694;48.732;9.248;2022-12-07T01:13:31;10.87;;;9.77;;
7306;SDS011;3694;48.732;9.248;2022-12-07T01:15:58;11.20;;;9.40;;
7306;SDS011;3694;48.732;9.248;2022-12-07T01:18:28;11.43;;;10.00;;
7306;SDS011;3694;48.732;9.248;2022-12-07T01:21:02;11.30;;;10.17;;
7306;SDS011;3694;48.732;9.248;2022-12-07T01:23:30;11.33;;;9.67;;
7306;SDS011;3694;48.732;9.248;2022-12-07T01:26:00;11.73;;;9.70;;
7306;SDS011;3694;48.732;9.248;2022-12-07T01:28:27;13.60;;;11.70;;
7306;SDS011;3694;48.732;9.248;2022-12-07T01:31:00;13.00;;;10.10;;
7306;SDS011;3694;48.732;9.248;2022-12-07T01:33:29;13.57;;;11.43;;
7306;SDS011;3694;48.732;9.248;2022-12-07T01:36:16;13.07;;;10.63;;
7306;SDS011;3694;48.732;9.248;2022-12-07T01:38:48;12.17;;;10.50;;
7306;SDS011;3694;48.732;9.248;2022-12-07T01:41:19;11.90;;;10.70;;
7306;SDS011;3694;48.732;9.248;2022-12-07T01:46:38;12.80;;;10.43;;
7306;SDS011;3694;48.732;9.248;2022-12-07T01:49:04;11.70;;;10.07;;
7306;SDS011;3694;48.732;9.248;2022-12-07T01:51:33;12.63;;;10.63;;
7306;SDS011;3694;48.732;9.248;2022-12-07T01:54:02;11.73;;;10.00;;
7306;SDS011;3694;48.732;9.248;2022-12-07T01:56:27;12.27;;;10.27;;
7306;SDS011;3694;48.732;9.248;2022-12-07T01:58:54;13.17;;;10.83;;
7306;SDS011;3694;48.732;9.248;2022-12-07T02:01:22;12.33;;;10.60;;
7306;SDS011;3694;48.732;9.248;2022-12-07T02:03:48;14.07;;;11.90;;
7306;SDS011;3694;48.732;9.248;2022-12-07T02:06:16;13.40;;;10.80;;
7306;SDS011;3694;48.732;9.248;2022-12-07T02:08:45;12.67;;;10.50;;
7306;SDS011;3694;48.732;9.248;2022-12-07T02:11:11;14.07;;;11.43;;
7306;SDS011;3694;48.732;9.248;2022-12-07T02:13:38;12.97;;;10.93;;
7306;SDS011;3694;48.732;9.248;2022-12-07T02:24:01;13.73;;;11.13;;
7306;SDS011;3694;48.732;9.248;2022-12-07T02:26:49;13.13;;;11.13;;
7306;SDS011;3694;48.732;9.248;2022-12-07T02:29:36;13.27;;;11.07;;
7306;SDS011;3694;48.732;9.248;2022-12-07T02:35:28;13.47;;;11.40;;
7306;SDS011;3694;48.732;9.248;2022-12-07T02:38:05;13.90;;;11.63;;
7306;SDS011;3694;48.732;9.248;2022-12-07T02:40:44;13.83;;;10.77;;
7306;SDS011;3694;48.732;9.248;2022-12-07T02:43:17;13.90;;;11.40;;
7306;SDS011;3694;48.732;9.248;2022-12-07T02:45:48;14.20;;;11.77;;
7306;SDS011;3694;48.732;9.248;2022-12-07T02:48:16;15.47;;;12.23;;
7306;SDS011;3694;48.732;9.248;2022-12-07T02:50:44;14.37;;;10.47;;
7306;SDS011;3694;48.732;9.248;2022-12-07T02:56:03;15.53;;;11.83;;
7306;SDS011;3694;48.732;9.248;2022-12-07T03:10:14;13.80;;;11.57;;
7306;SDS011;3694;48.732;9.248;2022-12-07T03:13:09;13.53;;;11.40;;
7306;SDS011;3694;48.732;9.248;2022-12-07T03:16:06;14.50;;;10.97;;
7306;SDS011;3694;48.732;9.248;2022-12-07T03:19:01;14.50;;;10.97;;
7306;SDS011;3694;48.732;9.248;2022-12-07T03:21:31;14.10;;;11.17;;
7306;SDS011;3694;48.732;9.248;2022-12-07T03:24:00;13.47;;;11.03;;
7306;SDS011;3694;48.732;9.248;2022-12-07T03:26:32;13.00;;;10.97;;
7306;SDS011;3694;48.732;9.248;2022-12-07T03:29:02;13.67;;;11.23;;
7306;SDS011;3694;48.732;9.248;2022-12-07T03:31:33;13.43;;;11.10;;
7306;SDS011;3694;48.732;9.248;2022-12-07T03:34:14;14.40;;;11.33;;
7306;SDS011;3694;48.732;9.248;2022-12-07T03:36:52;14.20;;;11.77;;
7306;SDS011;3694;48.732;9.248;2022-12-07T03:42:26;14.63;;;11.80;;
7306;SDS011;3694;48.732;9.248;2022-12-07T03:44:52;14.13;;;11.40;;
7306;SDS011;3694;48.732;9.248;2022-12-07T03:47:21;17.00;;;12.13;;
7306;SDS011;3694;48.732;9.248;2022-12-07T03:49:58;13.70;;;11.63;;
7306;SDS011;3694;48.732;9.248;2022-12-07T03:52:33;14.53;;;12.23;;
7306;SDS011;3694;48.732;9.248;2022-12-07T03:55:11;13.80;;;11.83;;
7306;SDS011;3694;48.732;9.248;2022-12-07T03:57:43;15.20;;;12.50;;
7306;SDS011;3694;48.732;9.248;2022-12-07T04:00:12;13.57;;;11.87;;
7306;SDS011;3694;48.732;9.248;2022-12-07T04:02:38;16.03;;;12.00;;
7306;SDS011;3694;48.732;9.248;2022-12-07T04:05:05;14.03;;;11.57;;
7306;SDS011;3694;48.732;9.248;2022-12-07T04:07:31;14.67;;;11.83;;
7306;SDS011;3694;48.732;9.248;2022-12-07T04:09:57;15.00;;;12.03;;
7306;SDS011;3694;48.732;9.248;2022-12-07T04:12:23;14.23;;;12.03;;
7306;SDS011;3694;48.732;9.248;2022-12-07T04:14:49;14.20;;;11.87;;
7306;SDS011;3694;48.732;9.248;2022-12-07T04:17:14;12.53;;;10.73;;
7306;SDS011;3694;48.732;9.248;2022-12-07T04:19:40;14.03;;;11.33;;
7306;SDS011;3694;48.732;9.248;2022-12-07T04:22:05;14.10;;;10.77;;
7306;SDS011;3694;48.732;9.248;2022-12-07T04:24:31;14.10;;;11.90;;
7306;SDS011;3694;48.732;9.248;2022-12-07T04:26:57;13.17;;;11.13;;
7306;SDS011;3694;48.732;9.248;2022-12-07T04:29:23;13.47;;;11.10;;
7306;SDS011;3694;48.732;9.248;2022-12-07T04:31:49;12.33;;;10.23;;
7306;SDS011;3694;48.732;9.248;2022-12-07T04:34:15;13.10;;;10.27;;
7306;SDS011;3694;48.732;9.248;2022-12-07T04:36:41;16.20;;;13.63;;
7306;SDS011;3694;48.732;9.248;2022-12-07T04:39:08;12.87;;;10.77;;
7306;SDS011;3694;48.732;9.248;2022-12-07T04:41:43;14.97;;;11.77;;
7306;SDS011;3694;48.732;9.248;2022-12-07T04:44:09;15.43;;;11.87;;
7306;SDS011;3694;48.732;9.248;2022-12-07T04:46:35;15.50;;;12.37;;
7306;SDS011;3694;48.732;9.248;2022-12-07T04:49:00;13.30;;;10.97;;
7306;SDS011;3694;48.732;9.248;2022-12-07T04:51:27;14.23;;;11.27;;
7306;SDS011;3694;48.732;9.248;2022-12-07T04:53:54;13.30;;;10.53;;
7306;SDS011;3694;48.732;9.248;2022-12-07T04:56:20;13.43;;;10.60;;
7306;SDS011;3694;48.732;9.248;2022-12-07T04:58:47;12.43;;;10.07;;
7306;SDS011;3694;48.732;9.248;2022-12-07T05:01:13;6.27;;;5.20;;
7306;SDS011;3694;48.732;9.248;2022-12-07T05:03:40;7.80;;;6.57;;
7306;SDS011;3694;48.732;9.248;2022-12-07T05:06:06;9.03;;;7.97;;
7306;SDS011;3694;48.732;9.248;2022-12-07T05:08:33;9.57;;;8.47;;
7306;SDS011;3694;48.732;9.248;2022-12-07T05:10:59;11.30;;;9.33;;
7306;SDS011;3694;48.732;9.248;2022-12-07T05:13:25;9.03;;;8.07;;
7306;SDS011;3694;48.732;9.248;2022-12-07T05:15:50;8.50;;;7.30;;
7306;SDS011;3694;48.732;9.248;2022-12-07T05:18:16;9.47;;;7.53;;
7306;SDS011;3694;48.732;9.248;2022-12-07T05:20:42;7.93;;;6.93;;
7306;SDS011;3694;48.732;9.248;2022-12-07T05:23:08;7.40;;;6.50;;
7306;SDS011;3694;48.732;9.248;2022-12-07T05:25:33;7.83;;;6.77;;
7306;SDS011;3694;48.732;9.248;2022-12-07T05:27:59;9.73;;;8.63;;
7306;SDS011;3694;48.732;9.248;2022-12-07T05:30:25;11.20;;;9.23;;
7306;SDS011;3694;48.732;9.248;2022-12-07T05:32:52;9.87;;;8.87;;
7306;SDS011;3694;48.732;9.248;2022-12-07T05:35:18;10.33;;;9.03;;
7306;SDS011;3694;48.732;9.248;2022-12-07T05:37:44;11.00;;;8.67;;
7306;SDS011;3694;48.732;9.248;2022-12-07T05:40:10;10.50;;;8.77;;
7306;SDS011;3694;48.732;9.248;2022-12-07T05:42:36;10.20;;;9.10;;
7306;SDS011;3694;48.732;9.248;2022-12-07T05:45:02;11.13;;;9.30;;
7306;SDS011;3694;48.732;9.248;2022-12-07T05:47:29;10.73;;;9.47;;
7306;SDS011;3694;48.732;9.248;2022-12-07T05:49:54;9.80;;;8.37;;
7306;SDS011;3694;48.732;9.248;2022-12-07T05:52:20;10.33;;;9.23;;
7306;SDS011;3694;48.732;9.248;2022-12-07T05:54:46;9.87;;;7.90;;
7306;SDS011;3694;48.732;9.248;2022-12-07T05:57:11;11.57;;;8.93;;
7306;SDS011;3694;48.732;9.248;2022-12-07T05:59:37;9.30;;;8.10;;
7306;SDS011;3694;48.732;9.248;2022-12-07T06:02:04;9.40;;;8.10;;
7306;SDS011;3694;48.732;9.248;2022-12-07T06:04:32;13.10;;;8.13;;
7306;SDS011;3694;48.732;9.248;2022-12-07T06:07:00;11.03;;;8.27;;
7306;SDS011;3694;48.732;9.248;2022-12-07T06:09:26;10.30;;;9.00;;
7306;SDS011;3694;48.732;9.248;2022-12-07T06:11:52;12.83;;;9.77;;
7306;SDS011;3694;48.732;9.248;2022-12-07T06:14:37;12.80;;;9.90;;
7306;SDS011;3694;48.732;9.248;2022-12-07T06:17:03;13.17;;;10.03;;
7306;SDS011;3694;48.732;9.248;2022-12-07T06:19:30;13.43;;;10.03;;
7306;SDS011;3694;48.732;9.248;2022-12-07T06:21:55;13.00;;;9.50;;
7306;SDS011;3694;48.732;9.248;2022-12-07T06:24:21;13.30;;;10.10;;
7306;SDS011;3694;48.732;9.248;2022-12-07T06:26:47;11.33;;;9.37;;
7306;SDS011;3694;48.732;9.248;2022-12-07T06:29:13;13.37;;;9.67;;
7306;SDS011;3694;48.732;9.248;2022-12-07T06:31:39;12.67;;;9.67;;
7306;SDS011;3694;48.732;9.248;2022-12-07T06:34:09;13.90;;;10.37;;
7306;SDS011;3694;48.732;9.248;2022-12-07T06:36:36;12.87;;;10.47;;
7306;SDS011;3694;48.732;9.248;2022-12-07T06:39:03;14.53;;;11.10;;
7306;SDS011;3694;48.732;9.248;2022-12-07T06:41:29;12.57;;;10.67;;
7306;SDS011;3694;48.732;9.248;2022-12-07T06:43:54;14.03;;;10.33;;
7306;SDS011;3694;48.732;9.248;2022-12-07T06:46:20;14.83;;;10.60;;
7306;SDS011;3694;48.732;9.248;2022-12-07T06:48:45;13.13;;;9.93;;
7306;SDS011;3694;48.732;9.248;2022-12-07T06:51:11;13.50;;;10.40;;
7306;SDS011;3694;48.732;9.248;2022-12-07T06:53:36;13.87;;;9.60;;
7306;SDS011;3694;48.732;9.248;2022-12-07T06:56:02;12.67;;;9.40;;
7306;SDS011;3694;48.732;9.248;2022-12-07T06:58:29;14.77;;;9.63;;
7306;SDS011;3694;48.732;9.248;2022-12-07T07:00:55;11.57;;;9.70;;
7306;SDS011;3694;48.732;9.248;2022-12-07T07:03:20;12.63;;;9.73;;
7306;SDS011;3694;48.732;9.248;2022-12-07T07:05:46;11.53;;;9.90;;
7306;SDS011;3694;48.732;9.248;2022-12-07T07:08:12;11.80;;;9.43;;
7306;SDS011;3694;48.732;9.248;2022-12-07T07:10:38;12.23;;;9.80;;
7306;SDS011;3694;48.732;9.248;2022-12-07T07:13:04;10.70;;;8.40;;
7306;SDS011;3694;48.732;9.248;2022-12-07T07:15:30;11.90;;;8.33;;
7306;SDS011;3694;48.732;9.248;2022-12-07T07:17:56;14.57;;;9.30;;
7306;SDS011;3694;48.732;9.248;2022-12-07T07:20:22;10.27;;;8.63;;
7306;SDS011;3694;48.732;9.248;2022-12-07T07:22:48;9.87;;;8.67;;
7306;SDS011;3694;48.732;9.248;2022-12-07T07:25:14;11.83;;;8.77;;
7306;SDS011;3694;48.732;9.248;2022-12-07T07:27:40;10.73;;;8.67;;
7306;SDS011;3694;48.732;9.248;2022-12-07T07:30:06;11.53;;;8.53;;
7306;SDS011;3694;48.732;9.248;2022-12-07T07:32:31;11.90;;;8.63;;
7306;SDS011;3694;48.732;9.248;2022-12-07T07:34:57;11.50;;;9.37;;
7306;SDS011;3694;48.732;9.248;2022-12-07T07:37:23;12.97;;;10.57;;
7306;SDS011;3694;48.732;9.248;2022-12-07T07:39:48;18.37;;;10.30;;
7306;SDS011;3694;48.732;9.248;2022-12-07T07:42:14;16.63;;;11.47;;
7306;SDS011;3694;48.732;9.248;2022-12-07T07:44:40;17.80;;;10.90;;
7306;SDS011;3694;48.732;9.248;2022-12-07T07:47:05;10.53;;;9.00;;
7306;SDS011;3694;48.732;9.248;2022-12-07T07:49:31;11.67;;;8.93;;
7306;SDS011;3694;48.732;9.248;2022-12-07T07:51:57;11.23;;;9.27;;
7306;SDS011;3694;48.732;9.248;2022-12-07T07:54:22;10.33;;;8.90;;
7306;SDS011;3694;48.732;9.248;2022-12-07T07:56:48;13.23;;;9.67;;
7306;SDS011;3694;48.732;9.248;2022-12-07T07:59:14;11.27;;;9.67;;
7306;SDS011;3694;48.732;9.248;2022-12-07T08:01:40;11.13;;;9.77;;
7306;SDS011;3694;48.732;9.248;2022-12-07T08:04:05;11.67;;;9.43;;
7306;SDS011;3694;48.732;9.248;2022-12-07T08:06:31;15.20;;;9.93;;
7306;SDS011;3694;48.732;9.248;2022-12-07T08:08:57;13.53;;;10.80;;
7306;SDS011;3694;48.732;9.248;2022-12-07T08:11:23;12.37;;;10.07;;
7306;SDS011;3694;48.732;9.248;2022-12-07T08:13:48;10.73;;;9.63;;
7306;SDS011;3694;48.732;9.248;2022-12-07T08:16:14;11.70;;;9.47;;
7306;SDS011;3694;48.732;9.248;2022-12-07T08:18:40;11.27;;;9.97;;
7306;SDS011;3694;48.732;9.248;2022-12-07T08:21:08;11.07;;;9.07;;
7306;SDS011;3694;48.732;9.248;2022-12-07T08:23:37;9.70;;;8.63;;
7306;SDS011;3694;48.732;9.248;2022-12-07T08:26:03;10.50;;;9.10;;
7306;SDS011;3694;48.732;9.248;2022-12-07T08:28:30;11.20;;;8.77;;
7306;SDS011;3694;48.732;9.248;2022-12-07T08:31:03;10.60;;;8.93;;
7306;SDS011;3694;48.732;9.248;2022-12-07T08:33:30;11.37;;;8.67;;
7306;SDS011;3694;48.732;9.248;2022-12-07T08:36:03;10.93;;;9.40;;
7306;SDS011;3694;48.732;9.248;2022-12-07T08:38:31;11.03;;;8.80;;
7306;SDS011;3694;48.732;9.248;2022-12-07T08:40:57;10.90;;;8.80;;
7306;SDS011;3694;48.732;9.248;2022-12-07T08:43:23;11.03;;;9.10;;
7306;SDS011;3694;48.732;9.248;2022-12-07T08:46:03;9.47;;;8.37;;
7306;SDS011;3694;48.732;9.248;2022-12-07T08:48:36;10.33;;;8.27;;
7306;SDS011;3694;48.732;9.248;2022-12-07T08:51:08;9.53;;;8.53;;
7306;SDS011;3694;48.732;9.248;2022-12-07T08:53:34;10.53;;;8.97;;
7306;SDS011;3694;48.732;9.248;2022-12-07T08:56:01;11.57;;;9.33;;
7306;SDS011;3694;48.732;9.248;2022-12-07T08:58:27;14.23;;;8.50;;
7306;SDS011;3694;48.732;9.248;2022-12-07T09:00:52;11.13;;;8.70;;
7306;SDS011;3694;48.732;9.248;2022-12-07T09:03:18;9.17;;;8.07;;
7306;SDS011;3694;48.732;9.248;2022-12-07T09:05:43;9.27;;;8.03;;
7306;SDS011;3694;48.732;9.248;2022-12-07T09:08:09;11.53;;;8.63;;
7306;SDS011;3694;48.732;9.248;2022-12-07T09:10:35;9.33;;;8.33;;
7306;SDS011;3694;48.732;9.248;2022-12-07T09:13:00;10.67;;;8.67;;
7306;SDS011;3694;48.732;9.248;2022-12-07T09:15:27;9.87;;;8.07;;
7306;SDS011;3694;48.732;9.248;2022-12-07T09:17:53;8.90;;;7.80;;
7306;SDS011;3694;48.732;9.248;2022-12-07T09:20:19;9.67;;;7.50;;
7306;SDS011;3694;48.732;9.248;2022-12-07T09:22:45;11.10;;;8.27;;
7306;SDS011;3694;48.732;9.248;2022-12-07T09:25:10;9.03;;;7.53;;
7306;SDS011;3694;48.732;9.248;2022-12-07T09:27:36;8.93;;;7.20;;
7306;SDS011;3694;48.732;9.248;2022-12-07T09:30:02;8.17;;;6.60;;
7306;SDS011;3694;48.732;9.248;2022-12-07T09:32:29;7.07;;;6.37;;
7306;SDS011;3694;48.732;9.248;2022-12-07T09:34:54;8.17;;;7.13;;
7306;SDS011;3694;48.732;9.248;2022-12-07T09:37:20;8.30;;;6.47;;
7306;SDS011;3694;48.732;9.248;2022-12-07T09:39:45;9.27;;;6.90;;
7306;SDS011;3694;48.732;9.248;2022-12-07T09:42:14;8.77;;;6.70;;
7306;SDS011;3694;48.732;9.248;2022-12-07T09:45:00;7.50;;;6.70;;
7306;SDS011;3694;48.732;9.248;2022-12-07T09:47:29;7.83;;;6.97;;
7306;SDS011;3694;48.732;9.248;2022-12-07T09:49:57;6.90;;;6.20;;
7306;SDS011;3694;48.732;9.248;2022-12-07T09:52:28;7.10;;;6.40;;
7306;SDS011;3694;48.732;9.248;2022-12-07T09:54:54;8.27;;;6.63;;
7306;SDS011;3694;48.732;9.248;2022-12-07T09:57:21;8.73;;;6.93;;
7306;SDS011;3694;48.732;9.248;2022-12-07T09:59:59;7.03;;;6.33;;
7306;SDS011;3694;48.732;9.248;2022-12-07T10:02:38;6.13;;;5.53;;
7306;SDS011;3694;48.732;9.248;2022-12-07T10:05:13;7.90;;;5.90;;
7306;SDS011;3694;48.732;9.248;2022-12-07T10:07:48;7.37;;;6.17;;
7306;SDS011;3694;48.732;9.248;2022-12-07T10:10:19;7.40;;;5.93;;
7306;SDS011;3694;48.732;9.248;2022-12-07T10:18:21;6.90;;;6.20;;
7306;SDS011;3694;48.732;9.248;2022-12-07T10:23:34;6.30;;;5.43;;
7306;SDS011;3694;48.732;9.248;2022-12-07T10:28:45;6.83;;;5.60;;
7306;SDS011;3694;48.732;9.248;2022-12-07T10:31:15;7.83;;;5.37;;
7306;SDS011;3694;48.732;9.248;2022-12-07T10:33:51;7.20;;;5.60;;
7306;SDS011;3694;48.732;9.248;2022-12-07T10:36:42;12.93;;;5.63;;
7306;SDS011;3694;48.732;9.248;2022-12-07T10:44:50;5.83;;;5.20;;
7306;SDS011;3694;48.732;9.248;2022-12-07T10:50:26;6.07;;;5.47;;
7306;SDS011;3694;48.732;9.248;2022-12-07T10:53:12;7.40;;;5.10;;
7306;SDS011;3694;48.732;9.248;2022-12-07T10:56:10;6.17;;;4.77;;
7306;SDS011;3694;48.732;9.248;2022-12-07T11:01:41;6.37;;;5.13;;
7306;SDS011;3694;48.732;9.248;2022-12-07T11:04:16;9.83;;;5.50;;
7306;SDS011;3694;48.732;9.248;2022-12-07T11:12:41;9.40;;;5.23;;
7306;SDS011;3694;48.732;9.248;2022-12-07T11:18:27;5.83;;;5.20;;
7306;SDS011;3694;48.732;9.248;2022-12-07T11:23:52;5.93;;;4.57;;
7306;SDS011;3694;48.732;9.248;2022-12-07T11:29:24;5.37;;;4.40;;
7306;SDS011;3694;48.732;9.248;2022-12-07T11:34:56;6.33;;;5.07;;
7306;SDS011;3694;48.732;9.248;2022-12-07T11:37:36;12.87;;;5.93;;
7306;SDS011;3694;48.732;9.248;2022-12-07T11:40:04;6.90;;;4.77;;
7306;SDS011;3694;48.732;9.248;2022-12-07T11:42:44;4.43;;;3.90;;
7306;SDS011;3694;48.732;9.248;2022-12-07T11:45:32;4.33;;;3.90;;
7306;SDS011;3694;48.732;9.248;2022-12-07T11:48:03;5.03;;;4.07;;
7306;SDS011;3694;48.732;9.248;2022-12-07T11:50:38;5.07;;;4.57;;
7306;SDS011;3694;48.732;9.248;2022-12-07T11:53:10;5.40;;;4.43;;
7306;SDS011;3694;48.732;9.248;2022-12-07T12:04:14;6.27;;;5.20;;
7306;SDS011;3694;48.732;9.248;2022-12-07T12:07:05;5.33;;;4.70;;
7306;SDS011;3694;48.732;9.248;2022-12-07T12:09:35;8.40;;;6.07;;
7306;SDS011;3694;48.732;9.248;2022-12-07T12:15:23;7.67;;;5.60;;
7306;SDS011;3694;48.732;9.248;2022-12-07T12:18:16;7.27;;;5.13;;
7306;SDS011;3694;48.732;9.248;2022-12-07T12:20:56;9.13;;;5.70;;
7306;SDS011;3694;48.732;9.248;2022-12-07T12:26:16;9.57;;;7.07;;
7306;SDS011;3694;48.732;9.248;2022-12-07T12:33:48;7.00;;;5.47;;
7306;SDS011;3694;48.732;9.248;2022-12-07T12:36:17;6.90;;;4.60;;
7306;SDS011;3694;48.732;9.248;2022-12-07T12:41:57;3.60;;;3.30;;
7306;SDS011;3694;48.732;9.248;2022-12-07T12:46:57;5.30;;;3.87;;
7306;SDS011;3694;48.732;9.248;2022-12-07T12:51:51;5.10;;;4.17;;
7306;SDS011;3694;48.732;9.248;2022-12-07T12:57:10;4.87;;;4.37;;
7306;SDS011;3694;48.732;9.248;2022-12-07T13:13:02;6.80;;;5.80;;
7306;SDS011;3694;48.732;9.248;2022-12-07T13:15:32;6.43;;;5.57;;
7306;SDS011;3694;48.732;9.248;2022-12-07T13:17:59;7.50;;;6.80;;
7306;SDS011;3694;48.732;9.248;2022-12-07T13:26:12;8.73;;;6.30;;
7306;SDS011;3694;48.732;9.248;2022-12-07T13:28:51;6.20;;;5.60;;
7306;SDS011;3694;48.732;9.248;2022-12-07T13:31:33;6.83;;;6.13;;
7306;SDS011;3694;48.732;9.248;2022-12-07T13:34:02;6.53;;;5.93;;
7306;SDS011;3694;48.732;9.248;2022-12-07T13:36:33;6.53;;;5.80;;
7306;SDS011;3694;48.732;9.248;2022-12-07T13:41:44;5.17;;;4.67;;
7306;SDS011;3694;48.732;9.248;2022-12-07T13:44:16;5.47;;;4.97;;
7306;SDS011;3694;48.732;9.248;2022-12-07T13:49:53;5.70;;;5.20;;
7306;SDS011;3694;48.732;9.248;2022-12-07T13:52:25;6.17;;;4.93;;
7306;SDS011;3694;48.732;9.248;2022-12-07T13:54:57;5.63;;;5.10;;
7306;SDS011;3694;48.732;9.248;2022-12-07T13:57:23;6.07;;;4.93;;
7306;SDS011;3694;48.732;9.248;2022-12-07T13:59:50;5.33;;;4.30;;
7306;SDS011;3694;48.732;9.248;2022-12-07T14:02:34;5.67;;;4.80;;
7306;SDS011;3694;48.732;9.248;2022-12-07T14:05:12;5.30;;;4.83;;
7306;SDS011;3694;48.732;9.248;2022-12-07T14:12:58;5.30;;;4.77;;
7306;SDS011;3694;48.732;9.248;2022-12-07T14:15:28;4.70;;;4.20;;
7306;SDS011;3694;48.732;9.248;2022-12-07T14:17:56;8.13;;;5.00;;
7306;SDS011;3694;48.732;9.248;2022-12-07T14:20:33;6.67;;;5.97;;
7306;SDS011;3694;48.732;9.248;2022-12-07T14:23:01;6.13;;;5.53;;
7306;SDS011;3694;48.732;9.248;2022-12-07T14:25:43;5.80;;;4.60;;
7306;SDS011;3694;48.732;9.248;2022-12-07T14:28:24;6.83;;;4.77;;
7306;SDS011;3694;48.732;9.248;2022-12-07T14:30:50;4.37;;;3.97;;
7306;SDS011;3694;48.732;9.248;2022-12-07T14:33:16;4.97;;;4.40;;
7306;SDS011;3694;48.732;9.248;2022-12-07T14:35:42;6.93;;;4.33;;
7306;SDS011;3694;48.732;9.248;2022-12-07T14:38:08;5.83;;;4.00;;
7306;SDS011;3694;48.732;9.248;2022-12-07T14:40:33;5.20;;;4.13;;
7306;SDS011;3694;48.732;9.248;2022-12-07T14:43:03;5.00;;;4.10;;
7306;SDS011;3694;48.732;9.248;2022-12-07T14:45:31;3.97;;;3.63;;
7306;SDS011;3694;48.732;9.248;2022-12-07T14:47:57;4.93;;;3.77;;
7306;SDS011;3694;48.732;9.248;2022-12-07T14:50:23;3.97;;;3.60;;
7306;SDS011;3694;48.732;9.248;2022-12-07T14:52:54;4.57;;;3.83;;
7306;SDS011;3694;48.732;9.248;2022-12-07T14:55:23;3.93;;;3.47;;
7306;SDS011;3694;48.732;9.248;2022-12-07T14:57:49;4.47;;;3.80;;
7306;SDS011;3694;48.732;9.248;2022-12-07T15:00:15;4.30;;;3.90;;
7306;SDS011;3694;48.732;9.248;2022-12-07T15:02:42;6.93;;;6.33;;
7306;SDS011;3694;48.732;9.248;2022-12-07T15:05:08;6.60;;;6.00;;
7306;SDS011;3694;48.732;9.248;2022-12-07T15:07:34;6.33;;;5.00;;
7306;SDS011;3694;48.732;9.248;2022-12-07T15:09:59;6.10;;;5.50;;
7306;SDS011;3694;48.732;9.248;2022-12-07T15:12:25;6.20;;;5.40;;
7306;SDS011;3694;48.732;9.248;2022-12-07T15:14:50;8.20;;;7.40;;
7306;SDS011;3694;48.732;9.248;2022-12-07T15:17:16;8.17;;;7.33;;
7306;SDS011;3694;48.732;9.248;2022-12-07T15:19:41;6.10;;;5.57;;
7306;SDS011;3694;48.732;9.248;2022-12-07T15:22:07;7.67;;;6.67;;
7306;SDS011;3694;48.732;9.248;2022-12-07T15:24:35;8.33;;;7.43;;
7306;SDS011;3694;48.732;9.248;2022-12-07T15:27:00;6.33;;;5.73;;
7306;SDS011;3694;48.732;9.248;2022-12-07T15:29:26;6.53;;;5.90;;
7306;SDS011;3694;48.732;9.248;2022-12-07T15:31:51;8.00;;;6.60;;
7306;SDS011;3694;48.732;9.248;2022-12-07T15:34:17;5.50;;;5.00;;
7306;SDS011;3694;48.732;9.248;2022-12-07T15:36:43;7.20;;;5.17;;
7306;SDS011;3694;48.732;9.248;2022-12-07T15:39:09;6.13;;;5.03;;
7306;SDS011;3694;48.732;9.248;2022-12-07T15:41:35;5.53;;;4.97;;
7306;SDS011;3694;48.732;9.248;2022-12-07T15:44:01;5.63;;;4.97;;
7306;SDS011;3694;48.732;9.248;2022-12-07T15:46:45;6.30;;;5.33;;
7306;SDS011;3694;48.732;9.248;2022-12-07T15:49:12;6.03;;;5.13;;
7306;SDS011;3694;48.732;9.248;2022-12-07T15:51:40;6.43;;;5.83;;
7306;SDS011;3694;48.732;9.248;2022-12-07T15:54:06;7.90;;;5.67;;
7306;SDS011;3694;48.732;9.248;2022-12-07T15:56:31;6.57;;;5.13;;
7306;SDS011;3694;48.732;9.248;2022-12-07T15:58:57;7.27;;;5.33;;
7306;SDS011;3694;48.732;9.248;2022-12-07T16:01:22;5.43;;;4.97;;
7306;SDS011;3694;48.732;9.248;2022-12-07T16:03:48;6.53;;;5.20;;
7306;SDS011;3694;48.732;9.248;2022-12-07T16:06:17;7.40;;;5.17;;
7306;SDS011;3694;48.732;9.248;2022-12-07T16:08:43;5.63;;;4.93;;
7306;SDS011;3694;48.732;9.248;2022-12-07T16:11:10;6.13;;;5.53;;
7306;SDS011;3694;48.732;9.248;2022-12-07T16:13:36;8.77;;;7.43;;
7306;SDS011;3694;48.732;9.248;2022-12-07T16:16:05;7.20;;;6.10;;
7306;SDS011;3694;48.732;9.248;2022-12-07T16:18:33;7.97;;;5.57;;
7306;SDS011;3694;48.732;9.248;2022-12-07T16:20:59;8.53;;;6.07;;
7306;SDS011;3694;48.732;9.248;2022-12-07T16:23:24;6.63;;;5.73;;
7306;SDS011;3694;48.732;9.248;2022-12-07T16:25:50;7.43;;;6.10;;
7306;SDS011;3694;48.732;9.248;2022-12-07T16:28:16;11.80;;;10.30;;
7306;SDS011;3694;48.732;9.248;2022-12-07T16:30:41;10.83;;;9.17;;
7306;SDS011;3694;48.732;9.248;2022-12-07T16:33:07;10.27;;;8.23;;
7306;SDS011;3694;48.732;9.248;2022-12-07T16:35:32;12.07;;;9.10;;
7306;SDS011;3694;48.732;9.248;2022-12-07T16:37:58;9.10;;;7.27;;
7306;SDS011;3694;48.732;9.248;2022-12-07T16:40:23;10.63;;;8.33;;
7306;SDS011;3694;48.732;9.248;2022-12-07T16:42:49;10.33;;;8.43;;
7306;SDS011;3694;48.732;9.248;2022-12-07T16:45:14;9.00;;;7.60;;
7306;SDS011;3694;48.732;9.248;2022-12-07T16:47:40;10.50;;;8.47;;
7306;SDS011;3694;48.732;9.248;2022-12-07T16:50:06;8.27;;;7.40;;
7306;SDS011;3694;48.732;9.248;2022-12-07T16:52:32;9.93;;;7.23;;
7306;SDS011;3694;48.732;9.248;2022-12-07T16:54:58;8.70;;;7.10;;
7306;SDS011;3694;48.732;9.248;2022-12-07T16:57:23;10.93;;;8.57;;
7306;SDS011;3694;48.732;9.248;2022-12-07T16:59:49;10.10;;;7.87;;
7306;SDS011;3694;48.732;9.248;2022-12-07T17:02:18;9.77;;;8.20;;
7306;SDS011;3694;48.732;9.248;2022-12-07T17:04:44;11.47;;;9.17;;
7306;SDS011;3694;48.732;9.248;2022-12-07T17:07:10;11.30;;;8.73;;
7306;SDS011;3694;48.732;9.248;2022-12-07T17:09:36;11.03;;;8.60;;
7306;SDS011;3694;48.732;9.248;2022-12-07T17:12:01;11.07;;;9.20;;
7306;SDS011;3694;48.732;9.248;2022-12-07T17:14:27;10.53;;;8.97;;
7306;SDS011;3694;48.732;9.248;2022-12-07T17:17:11;11.80;;;8.50;;
7306;SDS011;3694;48.732;9.248;2022-12-07T17:19:37;13.50;;;9.50;;
7306;SDS011;3694;48.732;9.248;2022-12-07T17:22:03;11.27;;;9.17;;
7306;SDS011;3694;48.732;9.248;2022-12-07T17:24:28;10.07;;;8.43;;
7306;SDS011;3694;48.732;9.248;2022-12-07T17:26:54;10.47;;;8.47;;